<?xml version="1.0" encoding="UTF-8" standalone="no" ?>
<gpx xmlns="http://www.topografix.com/GPX/1/1" xmlns:xsi="http://www.w3.org/2001/XMLSchema-instance" xsi:schemaLocation="http://www.topografix.com/GPX/1/1 http://www.topografix.com/GPX/1/1/gpx.xsd" version="1.1" creator="VisuGPX - https://www.visugpx.com">
  <metadata>
    <name>boucles beaumont</name>
    <desc><![CDATA[boucles beaumont du périgord]]></desc>
  </metadata>
  <trk>
    <name><![CDATA[BBmt33]]></name>
    <trkseg>
      <trkpt lat="44.77287" lon="0.81414">
        <ele>123</ele>
        <time>2009-06-18T16:43:36Z</time>
      </trkpt>
      <trkpt lat="44.76985" lon="0.8037">
        <ele>98</ele>
        <time>2008-12-03T11:44:34Z</time>
      </trkpt>
      <trkpt lat="44.76978" lon="0.8034">
        <ele>86</ele>
        <time>2008-12-03T11:44:57Z</time>
      </trkpt>
      <trkpt lat="44.76973" lon="0.8031">
        <ele>86</ele>
        <time>2008-12-03T11:45:02Z</time>
      </trkpt>
      <trkpt lat="44.76973" lon="0.80283">
        <ele>86</ele>
        <time>2008-12-03T11:45:06Z</time>
      </trkpt>
      <trkpt lat="44.7697" lon="0.80253">
        <ele>88</ele>
        <time>2008-12-03T11:45:10Z</time>
      </trkpt>
      <trkpt lat="44.76968" lon="0.80218">
        <ele>88</ele>
        <time>2008-12-03T11:45:14Z</time>
      </trkpt>
      <trkpt lat="44.76963" lon="0.80185">
        <ele>85</ele>
        <time>2008-12-03T11:45:17Z</time>
      </trkpt>
      <trkpt lat="44.76955" lon="0.8016">
        <ele>85</ele>
        <time>2008-12-03T11:45:21Z</time>
      </trkpt>
      <trkpt lat="44.76945" lon="0.80133">
        <ele>83</ele>
        <time>2008-12-03T11:45:25Z</time>
      </trkpt>
      <trkpt lat="44.76945" lon="0.80103">
        <ele>89</ele>
        <time>2008-12-03T11:46:05Z</time>
      </trkpt>
      <trkpt lat="44.7694" lon="0.80078">
        <ele>88</ele>
        <time>2008-12-03T11:46:17Z</time>
      </trkpt>
      <trkpt lat="44.76938" lon="0.8005">
        <ele>82</ele>
        <time>2008-12-03T11:46:22Z</time>
      </trkpt>
      <trkpt lat="44.76935" lon="0.80023">
        <ele>80</ele>
        <time>2008-12-03T11:46:27Z</time>
      </trkpt>
      <trkpt lat="44.76935" lon="0.79995">
        <ele>79</ele>
        <time>2008-12-03T11:46:32Z</time>
      </trkpt>
      <trkpt lat="44.76933" lon="0.79968">
        <ele>81</ele>
        <time>2008-12-03T11:46:38Z</time>
      </trkpt>
      <trkpt lat="44.76933" lon="0.79938">
        <ele>79</ele>
        <time>2008-12-03T11:46:45Z</time>
      </trkpt>
      <trkpt lat="44.76928" lon="0.79913">
        <ele>79</ele>
        <time>2008-12-03T11:46:50Z</time>
      </trkpt>
      <trkpt lat="44.76923" lon="0.79885">
        <ele>84</ele>
        <time>2008-12-03T11:46:56Z</time>
      </trkpt>
      <trkpt lat="44.7692" lon="0.79858">
        <ele>90</ele>
        <time>2008-12-03T11:47:05Z</time>
      </trkpt>
    </trkseg>
  </trk>
</gpx>